Time;durP1;ratioP1;P1;durP2;ratioP2;P2;SDS_P1;SDS_P2;PMS_P1;PMS_P2;Temp;Humidity;BMP_temperature;BMP_pressure;BME280_temperature;BME280_humidity;BME280_pressure;Samples;Min_cycle;Max_cycle;Signal;HPM_P1;HPM_P2
2023/10/24 00:00:20;;;;;;;1.77;1.60;;;12.40;99.90;;;;;;4931183;29;20196;-66
2023/10/24 00:02:47;;;;;;;2.23;1.53;;;12.30;99.90;;;;;;4929682;29;20740;-64
2023/10/24 00:05:14;;;;;;;5.30;1.57;;;12.40;99.90;;;;;;4916068;29;20203;-64
2023/10/24 00:07:43;;;;;;;3.17;1.67;;;12.40;99.90;;;;;;4925798;29;20672;-64
2023/10/24 00:10:10;;;;;;;2.80;1.77;;;12.40;99.90;;;;;;4930348;29;20211;-64
2023/10/24 00:12:36;;;;;;;2.00;1.40;;;12.40;99.90;;;;;;4927475;29;20207;-64
2023/10/24 00:15:04;;;;;;;4.83;1.57;;;12.40;99.90;;;;;;4927576;29;20286;-65
2023/10/24 00:17:31;;;;;;;6.17;1.60;;;12.40;99.90;;;;;;4913280;29;20206;-71
2023/10/24 00:19:58;;;;;;;4.30;1.40;;;12.40;99.90;;;;;;4929664;29;20199;-65
2023/10/24 00:22:25;;;;;;;5.27;1.70;;;12.50;99.90;;;;;;4929402;29;20195;-65
2023/10/24 00:24:52;;;;;;;5.40;1.33;;;12.50;99.90;;;;;;4929325;29;20274;-66
2023/10/24 00:27:19;;;;;;;2.67;1.43;;;12.50;99.90;;;;;;4929609;29;20200;-65
2023/10/24 00:29:46;;;;;;;3.67;1.57;;;12.50;99.90;;;;;;4928883;28;20707;-64
2023/10/24 00:32:13;;;;;;;2.63;1.90;;;12.50;99.90;;;;;;4931380;29;20212;-65
2023/10/24 00:34:40;;;;;;;4.07;1.23;;;12.50;99.90;;;;;;4936130;29;20677;-62
2023/10/24 00:37:07;;;;;;;3.40;1.50;;;12.50;99.90;;;;;;4911973;29;20696;-62
2023/10/24 00:39:35;;;;;;;2.87;1.40;;;12.50;99.90;;;;;;4913216;29;20191;-62
2023/10/24 00:42:04;;;;;;;3.87;1.30;;;12.60;99.90;;;;;;4930240;29;20195;-65
2023/10/24 00:44:32;;;;;;;4.27;1.67;;;12.60;99.90;;;;;;4918209;29;20258;-65
2023/10/24 00:47:00;;;;;;;2.90;1.33;;;12.50;99.90;;;;;;4909697;29;20278;-64
2023/10/24 00:49:27;;;;;;;4.87;1.50;;;12.50;99.90;;;;;;4906211;29;20197;-64
2023/10/24 00:51:56;;;;;;;3.00;1.30;;;12.60;99.90;;;;;;4919177;29;20229;-64
2023/10/24 00:54:25;;;;;;;4.33;1.40;;;12.60;99.90;;;;;;4910029;29;20200;-65
2023/10/24 00:56:52;;;;;;;4.13;1.70;;;12.60;99.90;;;;;;4908734;29;20209;-82
2023/10/24 00:59:21;;;;;;;1.90;1.40;;;12.60;99.90;;;;;;4912017;29;20669;-64
2023/10/24 01:01:48;;;;;;;2.10;1.30;;;12.70;99.90;;;;;;4910115;29;20255;-65
2023/10/24 01:04:18;;;;;;;5.17;1.57;;;12.70;99.90;;;;;;4912118;29;20291;-64
2023/10/24 01:06:45;;;;;;;8.87;2.20;;;12.80;99.90;;;;;;4911131;29;20202;-65
2023/10/24 01:09:12;;;;;;;3.33;1.40;;;12.80;99.90;;;;;;4910325;29;20232;-64
2023/10/24 01:11:39;;;;;;;4.80;1.37;;;12.90;99.90;;;;;;4910045;29;20299;-64
2023/10/24 01:14:06;;;;;;;3.70;1.70;;;13.10;99.90;;;;;;4908494;29;20208;-61
2023/10/24 01:16:34;;;;;;;5.17;1.63;;;13.10;99.90;;;;;;4924893;29;20545;-64
2023/10/24 01:19:01;;;;;;;4.53;1.87;;;13.00;99.90;;;;;;4903481;29;20204;-64
2023/10/24 01:21:28;;;;;;;5.60;2.13;;;13.00;99.90;;;;;;4910257;29;20267;-64
2023/10/24 01:23:56;;;;;;;2.37;1.70;;;13.10;99.90;;;;;;4906264;29;20208;-61
2023/10/24 01:26:26;;;;;;;3.20;1.60;;;13.30;99.90;;;;;;4910389;29;20212;-63
2023/10/24 01:28:53;;;;;;;2.73;1.50;;;13.40;99.90;;;;;;4908589;29;20256;-64
2023/10/24 01:31:20;;;;;;;1.93;1.47;;;13.40;99.90;;;;;;4912572;29;20248;-64
2023/10/24 01:33:47;;;;;;;1.58;1.48;;;13.50;99.90;;;;;;4907880;29;20202;-63
2023/10/24 01:36:15;;;;;;;1.70;1.30;;;13.40;99.90;;;;;;4908665;29;20532;-65
2023/10/24 01:38:42;;;;;;;7.00;1.70;;;13.50;99.90;;;;;;4910198;29;20197;-66
2023/10/24 01:41:09;;;;;;;3.60;1.77;;;13.50;99.90;;;;;;4911963;29;21289;-65
2023/10/24 01:43:36;;;;;;;4.03;1.70;;;13.50;99.90;;;;;;4928665;29;20342;-63
2023/10/24 01:46:04;;;;;;;3.00;1.57;;;13.50;99.90;;;;;;4907336;29;20247;-62
2023/10/24 01:48:31;;;;;;;2.10;1.70;;;13.60;99.90;;;;;;4909621;29;20613;-62
2023/10/24 01:50:58;;;;;;;3.37;1.60;;;13.60;99.90;;;;;;4909855;29;20220;-63
2023/10/24 01:53:25;;;;;;;3.47;1.80;;;13.60;99.90;;;;;;4906272;29;20200;-64
2023/10/24 01:55:53;;;;;;;2.70;1.20;;;13.60;99.90;;;;;;4928267;29;20717;-64
2023/10/24 01:58:20;;;;;;;3.53;1.43;;;13.60;99.90;;;;;;4912486;29;20228;-63
2023/10/24 02:04:47;;;;;;;8.73;2.30;;;13.50;99.90;;;;;;4914978;29;20255;-61
2023/10/24 02:07:14;;;;;;;4.40;1.57;;;13.50;99.90;;;;;;4918429;29;20211;-61
2023/10/24 02:09:41;;;;;;;2.23;1.60;;;13.50;99.90;;;;;;4910215;29;20255;-64
2023/10/24 02:12:08;;;;;;;5.27;1.57;;;13.50;99.90;;;;;;4913061;29;20216;-63
2023/10/24 02:14:37;;;;;;;2.07;1.50;;;13.50;99.90;;;;;;4926250;29;20243;-64
2023/10/24 02:17:04;;;;;;;6.33;2.00;;;13.50;99.90;;;;;;4911998;29;20208;-62
2023/10/24 02:19:32;;;;;;;2.23;1.53;;;13.50;99.90;;;;;;4909521;29;20279;-67
2023/10/24 02:21:59;;;;;;;1.70;1.50;;;13.60;99.90;;;;;;4903815;29;20208;-63
2023/10/24 02:24:26;;;;;;;4.10;1.83;;;13.50;99.90;;;;;;4911882;29;20283;-63
2023/10/24 02:26:53;;;;;;;3.10;1.17;;;13.50;99.90;;;;;;4912174;29;20189;-64
2023/10/24 02:29:20;;;;;;;3.60;1.75;;;13.50;99.90;;;;;;4907003;29;20197;-64
2023/10/24 02:31:47;;;;;;;1.57;1.37;;;13.60;99.90;;;;;;4910241;29;20382;-64
2023/10/24 02:34:15;;;;;;;5.68;1.40;;;13.60;99.90;;;;;;4908929;29;20612;-65
2023/10/24 02:36:42;;;;;;;2.42;1.42;;;13.60;99.90;;;;;;4912164;29;20244;-68
2023/10/24 02:39:09;;;;;;;1.52;1.40;;;13.70;99.90;;;;;;4912617;29;20711;-64
2023/10/24 02:41:36;;;;;;;4.55;1.50;;;13.70;99.90;;;;;;4911587;29;20201;-78
2023/10/24 02:44:03;;;;;;;1.70;1.60;;;13.70;99.90;;;;;;4911539;29;20665;-65
2023/10/24 02:46:30;;;;;;;1.50;1.27;;;13.70;99.90;;;;;;4929538;29;20231;-62
2023/10/24 02:48:57;;;;;;;3.30;1.70;;;13.70;99.90;;;;;;4927961;29;20723;-63
2023/10/24 02:51:24;;;;;;;2.42;1.42;;;13.70;99.90;;;;;;4931390;29;20210;-62
2023/10/24 02:53:51;;;;;;;2.38;1.73;;;13.80;99.90;;;;;;4928038;29;20208;-65
2023/10/24 02:56:18;;;;;;;1.33;1.23;;;13.80;99.90;;;;;;4910390;29;20246;-61
2023/10/24 02:58:45;;;;;;;1.27;1.17;;;13.80;99.90;;;;;;4933693;29;20208;-61
2023/10/24 03:01:12;;;;;;;1.52;1.20;;;13.80;99.90;;;;;;4925394;29;20664;-62
2023/10/24 03:03:39;;;;;;;5.13;1.52;;;13.80;99.90;;;;;;4909335;29;20265;-62
2023/10/24 03:06:17;;;;;;;3.55;1.48;;;13.80;99.90;;;;;;4912739;29;20204;-62
2023/10/24 03:08:44;;;;;;;6.50;1.60;;;13.80;99.90;;;;;;4931220;29;20195;-62
2023/10/24 03:11:11;;;;;;;4.32;1.52;;;13.80;99.90;;;;;;4915590;29;20692;-62
2023/10/24 03:13:38;;;;;;;4.10;1.77;;;13.80;99.90;;;;;;4932887;29;20199;-66
2023/10/24 03:16:06;;;;;;;1.63;1.38;;;13.80;99.90;;;;;;4932065;29;20199;-63
2023/10/24 03:18:34;;;;;;;2.53;1.30;;;13.80;99.90;;;;;;4939910;28;20645;-63
2023/10/24 03:21:04;;;;;;;8.73;1.50;;;13.80;99.90;;;;;;4928950;29;20274;-64
2023/10/24 03:23:31;;;;;;;1.50;1.40;;;13.80;99.90;;;;;;4929157;29;20473;-66
2023/10/24 03:25:59;;;;;;;2.72;1.35;;;13.80;99.90;;;;;;4910625;29;20260;-64
2023/10/24 03:28:27;;;;;;;2.72;1.20;;;13.80;99.90;;;;;;4913422;29;20676;-77
2023/10/24 03:31:04;;;;;;;1.38;1.27;;;13.80;99.90;;;;;;4933047;29;22075;-64
2023/10/24 03:33:33;;;;;;;2.17;1.50;;;13.80;99.90;;;;;;4913641;29;20207;-74
2023/10/24 03:36:00;;;;;;;3.25;1.45;;;13.80;99.90;;;;;;4940340;29;20735;-62
2023/10/24 03:38:27;;;;;;;1.70;1.43;;;13.70;99.90;;;;;;4915348;29;20187;-66
2023/10/24 03:40:54;;;;;;;1.52;1.35;;;13.70;99.90;;;;;;4931875;29;20202;-64
2023/10/24 03:43:21;;;;;;;1.30;1.20;;;13.70;99.90;;;;;;4932489;29;20663;-64
2023/10/24 03:45:49;;;;;;;3.05;1.40;;;13.70;99.90;;;;;;4932463;29;20237;-63
2023/10/24 03:48:16;;;;;;;2.85;1.40;;;13.70;99.90;;;;;;4931497;29;20287;-63
2023/10/24 03:50:43;;;;;;;1.88;1.30;;;13.80;99.90;;;;;;4929903;29;21122;-63
2023/10/24 03:53:10;;;;;;;2.10;1.45;;;13.70;99.90;;;;;;4932834;29;20298;-63
2023/10/24 03:55:37;;;;;;;3.38;1.60;;;13.70;99.90;;;;;;4930761;29;20732;-63
2023/10/24 03:58:05;;;;;;;1.27;1.17;;;13.70;99.90;;;;;;4931237;29;20196;-62
2023/10/24 04:00:32;;;;;;;2.03;1.60;;;13.70;99.90;;;;;;4922990;29;20192;-63
2023/10/24 04:03:00;;;;;;;3.65;1.50;;;13.70;99.90;;;;;;4930237;29;20627;-62
2023/10/24 04:05:31;;;;;;;3.05;1.80;;;13.70;99.90;;;;;;4932319;29;20211;-62
2023/10/24 04:07:58;;;;;;;1.52;1.40;;;13.70;99.90;;;;;;4932094;29;20551;-61
2023/10/24 04:10:25;;;;;;;1.42;1.33;;;13.70;99.90;;;;;;4929152;29;20267;-62
2023/10/24 04:12:52;;;;;;;2.20;1.70;;;13.70;99.90;;;;;;4932063;29;20230;-62
2023/10/24 04:15:19;;;;;;;1.73;1.40;;;13.70;99.90;;;;;;4913343;29;20200;-63
2023/10/24 04:17:45;;;;;;;2.00;1.53;;;13.70;99.90;;;;;;4934531;29;20216;-64
2023/10/24 04:20:13;;;;;;;2.78;1.50;;;13.60;99.90;;;;;;4928576;29;20203;-63
2023/10/24 04:22:43;;;;;;;2.47;1.70;;;13.60;99.90;;;;;;4915125;29;20203;-63
2023/10/24 04:25:10;;;;;;;1.50;1.40;;;13.60;99.90;;;;;;4929885;29;20191;-63
2023/10/24 04:27:37;;;;;;;1.63;1.45;;;13.60;99.90;;;;;;4930482;29;20652;-62
2023/10/24 04:30:06;;;;;;;2.33;2.13;;;13.60;99.90;;;;;;4930597;29;20288;-62
2023/10/24 04:32:33;;;;;;;1.42;1.33;;;13.50;99.90;;;;;;4931315;29;20310;-63
2023/10/24 04:35:00;;;;;;;1.83;1.63;;;13.50;99.90;;;;;;4931094;29;20203;-63
2023/10/24 04:37:27;;;;;;;4.37;1.90;;;13.60;99.90;;;;;;4931028;29;20656;-62
2023/10/24 04:39:54;;;;;;;2.00;1.60;;;13.50;99.90;;;;;;4928430;29;20188;-62
2023/10/24 04:42:21;;;;;;;2.75;1.80;;;13.50;99.90;;;;;;4931164;29;20198;-69
2023/10/24 04:44:48;;;;;;;3.80;1.63;;;13.50;99.90;;;;;;4929479;29;20251;-63
2023/10/24 04:47:15;;;;;;;4.05;2.38;;;13.40;99.90;;;;;;4921502;29;20287;-63
2023/10/24 04:49:42;;;;;;;2.85;2.40;;;13.50;99.90;;;;;;4927384;29;20196;-63
2023/10/24 04:52:12;;;;;;;2.83;2.30;;;13.50;99.90;;;;;;4930141;29;20204;-63
2023/10/24 04:54:39;;;;;;;5.43;3.27;;;13.50;99.90;;;;;;4929379;29;20187;-63
2023/10/24 04:57:07;;;;;;;2.20;2.00;;;13.40;99.90;;;;;;4930334;29;20200;-73
2023/10/24 04:59:34;;;;;;;5.93;4.07;;;13.40;99.90;;;;;;4931834;29;20243;-63
2023/10/24 05:02:00;;;;;;;7.35;3.38;;;13.40;99.90;;;;;;4929971;29;20203;-63
2023/10/24 05:04:28;;;;;;;1.98;1.58;;;13.40;99.90;;;;;;4927840;29;20206;-61
2023/10/24 05:06:55;;;;;;;2.05;1.40;;;13.40;99.90;;;;;;4928649;29;20837;-61
2023/10/24 05:09:22;;;;;;;1.65;1.55;;;13.40;99.90;;;;;;4930239;29;20195;-61
2023/10/24 05:11:49;;;;;;;4.30;2.30;;;13.30;99.90;;;;;;4929525;29;20231;-60
2023/10/24 05:14:16;;;;;;;2.75;1.95;;;13.30;99.90;;;;;;4927651;29;20200;-60
2023/10/24 05:16:43;;;;;;;1.77;1.50;;;13.30;99.90;;;;;;4935171;29;20676;-61
2023/10/24 05:19:10;;;;;;;4.53;1.52;;;13.30;99.90;;;;;;4929982;29;20252;-63
2023/10/24 05:21:37;;;;;;;1.47;1.30;;;13.30;99.90;;;;;;4934093;29;20195;-62
2023/10/24 05:24:04;;;;;;;2.60;1.52;;;13.30;99.90;;;;;;4931533;29;20208;-63
2023/10/24 05:26:31;;;;;;;2.33;1.83;;;13.30;99.90;;;;;;4932617;29;20206;-65
2023/10/24 05:28:58;;;;;;;1.40;1.30;;;13.30;99.90;;;;;;4934143;29;20207;-62
2023/10/24 05:31:25;;;;;;;2.67;1.40;;;13.20;99.90;;;;;;4934754;29;20195;-62
2023/10/24 05:33:52;;;;;;;2.45;1.50;;;13.20;99.90;;;;;;4932073;29;20289;-63
2023/10/24 05:36:19;;;;;;;3.03;1.52;;;13.20;99.90;;;;;;4928154;29;20588;-62
2023/10/24 05:38:46;;;;;;;2.22;1.67;;;13.10;99.90;;;;;;4940658;29;20315;-68
2023/10/24 05:41:13;;;;;;;1.25;1.15;;;13.10;99.90;;;;;;4938664;28;20203;-64
2023/10/24 05:43:39;;;;;;;1.40;1.30;;;13.10;99.90;;;;;;4924393;29;20204;-64
2023/10/24 05:46:07;;;;;;;2.20;1.75;;;13.20;99.90;;;;;;4933116;29;20233;-64
2023/10/24 05:48:35;;;;;;;1.98;1.77;;;13.20;99.90;;;;;;4931237;29;20735;-66
2023/10/24 05:51:02;;;;;;;1.40;1.30;;;13.10;99.90;;;;;;4914946;29;20201;-66
2023/10/24 05:53:29;;;;;;;1.30;1.20;;;13.20;99.90;;;;;;4909700;29;20226;-66
2023/10/24 05:55:56;;;;;;;2.45;1.52;;;13.20;99.90;;;;;;4934495;29;20263;-66
2023/10/24 05:58:23;;;;;;;1.53;1.40;;;13.20;99.90;;;;;;4933268;29;20188;-66
2023/10/24 06:00:51;;;;;;;1.40;1.30;;;13.10;99.90;;;;;;4933276;29;20222;-67
2023/10/24 06:03:19;;;;;;;2.70;2.00;;;13.20;99.90;;;;;;4915617;29;20267;-67
2023/10/24 06:05:49;;;;;;;1.30;1.20;;;13.20;99.90;;;;;;4930885;29;20283;-65
2023/10/24 06:08:16;;;;;;;3.97;1.63;;;13.20;99.90;;;;;;4915898;29;20330;-63
2023/10/24 06:10:43;;;;;;;1.65;1.48;;;13.20;99.90;;;;;;4932830;29;20194;-63
2023/10/24 06:13:17;;;;;;;1.80;1.37;;;13.20;99.90;;;;;;4925249;29;20222;-63
2023/10/24 06:15:44;;;;;;;2.67;1.70;;;13.20;99.90;;;;;;4910058;29;20319;-63
2023/10/24 06:18:11;;;;;;;4.20;1.70;;;13.20;99.90;;;;;;4931158;29;20204;-64
2023/10/24 06:20:39;;;;;;;2.80;1.48;;;13.20;99.90;;;;;;4930836;29;20207;-63
2023/10/24 06:23:07;;;;;;;2.17;1.63;;;13.20;99.90;;;;;;4932769;29;20196;-67
2023/10/24 06:25:41;;;;;;;8.10;1.60;;;13.20;99.90;;;;;;4930899;29;20303;-61
2023/10/24 06:28:08;;;;;;;5.10;1.70;;;13.20;99.90;;;;;;4931600;29;20219;-62
2023/10/24 06:30:36;;;;;;;3.00;1.77;;;13.20;99.90;;;;;;4916926;29;20203;-61
2023/10/24 06:33:03;;;;;;;1.77;1.20;;;13.20;99.90;;;;;;4933095;29;20222;-63
2023/10/24 06:35:30;;;;;;;3.10;1.40;;;13.20;99.90;;;;;;4916464;29;20600;-63
2023/10/24 06:37:57;;;;;;;1.95;1.58;;;13.20;99.90;;;;;;4915643;29;20196;-61
2023/10/24 06:40:24;;;;;;;2.00;1.33;;;13.10;99.90;;;;;;4915771;29;20195;-61
2023/10/24 06:42:51;;;;;;;3.40;1.40;;;13.20;99.90;;;;;;4908717;29;20280;-62
2023/10/24 06:45:18;;;;;;;1.20;1.10;;;13.20;99.90;;;;;;4924087;29;20271;-60
2023/10/24 06:47:45;;;;;;;3.70;1.20;;;13.20;99.90;;;;;;4931704;29;20208;-60
2023/10/24 06:50:13;;;;;;;1.98;1.60;;;13.20;99.90;;;;;;4929946;29;20250;-61
2023/10/24 06:52:42;;;;;;;1.27;1.17;;;13.20;99.90;;;;;;4932586;29;20211;-61
2023/10/24 06:55:09;;;;;;;1.30;1.20;;;13.30;99.90;;;;;;4930312;29;20339;-61
2023/10/24 06:57:36;;;;;;;2.50;1.50;;;13.30;99.90;;;;;;4932059;29;20204;-60
2023/10/24 07:00:04;;;;;;;1.40;1.27;;;13.20;99.90;;;;;;4926288;29;20223;-63
2023/10/24 07:02:33;;;;;;;1.83;1.30;;;13.30;99.90;;;;;;4926949;29;20196;-63
2023/10/24 07:05:01;;;;;;;1.35;1.25;;;13.30;99.90;;;;;;4929655;29;20200;-64
2023/10/24 07:07:28;;;;;;;3.05;1.10;;;13.30;99.90;;;;;;4927034;29;20535;-64
2023/10/24 07:09:55;;;;;;;1.15;1.08;;;13.30;99.90;;;;;;4930086;29;20784;-64
2023/10/24 07:12:22;;;;;;;1.48;1.25;;;13.30;99.90;;;;;;4930493;29;20219;-65
2023/10/24 07:14:56;;;;;;;1.85;1.10;;;13.40;99.90;;;;;;4931555;29;20223;-64
2023/10/24 07:17:23;;;;;;;1.10;0.90;;;13.40;99.90;;;;;;4934423;29;20207;-64
2023/10/24 07:19:50;;;;;;;1.05;0.93;;;13.40;99.90;;;;;;4929073;29;20224;-63
2023/10/24 07:22:18;;;;;;;1.20;1.10;;;13.50;99.90;;;;;;4928505;29;20279;-63
2023/10/24 07:24:45;;;;;;;1.30;1.20;;;13.50;99.90;;;;;;4926729;29;20282;-64
2023/10/24 07:27:12;;;;;;;1.33;1.20;;;13.50;99.90;;;;;;4913023;29;20264;-61
2023/10/24 07:29:39;;;;;;;2.75;1.42;;;13.50;99.90;;;;;;4930960;29;20205;-64
2023/10/24 07:32:06;;;;;;;3.58;1.73;;;13.50;99.90;;;;;;4912610;29;20224;-70
2023/10/24 07:34:34;;;;;;;1.45;1.30;;;13.50;99.90;;;;;;4915263;29;20192;-62
2023/10/24 07:37:01;;;;;;;1.42;1.27;;;13.50;99.90;;;;;;4927192;29;20200;-62
2023/10/24 07:39:28;;;;;;;1.50;1.40;;;13.50;99.90;;;;;;4932460;29;20270;-68
2023/10/24 07:41:55;;;;;;;2.33;1.45;;;13.50;99.90;;;;;;4929704;29;20655;-62
2023/10/24 07:44:22;;;;;;;2.47;1.42;;;13.50;99.90;;;;;;4915047;29;20254;-62
2023/10/24 07:46:49;;;;;;;1.67;1.38;;;13.50;99.90;;;;;;4930074;29;20575;-62
2023/10/24 07:49:16;;;;;;;1.27;1.15;;;13.50;99.90;;;;;;4932244;29;20199;-62
2023/10/24 07:51:43;;;;;;;2.80;1.50;;;13.50;99.90;;;;;;4925323;29;20192;-74
2023/10/24 07:54:13;;;;;;;1.40;1.30;;;13.50;99.90;;;;;;4931341;29;20223;-64
2023/10/24 07:56:41;;;;;;;1.63;1.30;;;13.50;99.90;;;;;;4931507;29;20231;-62
2023/10/24 07:59:08;;;;;;;2.47;1.40;;;13.50;99.90;;;;;;4927180;29;20684;-63
2023/10/24 08:01:35;;;;;;;1.42;1.33;;;13.50;99.90;;;;;;4932094;29;20215;-62
2023/10/24 08:04:03;;;;;;;3.25;1.70;;;13.50;99.90;;;;;;4915289;29;20215;-62
2023/10/24 08:06:30;;;;;;;1.15;1.10;;;13.50;99.90;;;;;;4932361;29;20230;-62
2023/10/24 08:08:57;;;;;;;1.85;1.67;;;13.50;99.90;;;;;;4916742;29;20570;-62
2023/10/24 08:11:24;;;;;;;1.85;1.35;;;13.50;99.90;;;;;;4929988;29;20695;-62
2023/10/24 08:13:51;;;;;;;1.83;1.50;;;13.60;99.90;;;;;;4929891;29;20684;-62
2023/10/24 08:16:20;;;;;;;1.02;1.00;;;13.60;99.90;;;;;;4933837;29;20203;-61
2023/10/24 08:18:48;;;;;;;1.92;1.20;;;13.60;99.90;;;;;;4914945;29;20200;-62
2023/10/24 08:21:16;;;;;;;1.60;1.20;;;13.60;99.90;;;;;;4929184;29;20187;-62
2023/10/24 08:23:43;;;;;;;1.63;1.30;;;13.70;99.90;;;;;;4924085;29;20196;-62
2023/10/24 08:26:10;;;;;;;1.30;1.20;;;13.70;99.90;;;;;;4931307;29;20707;-61
2023/10/24 08:28:36;;;;;;;4.47;1.52;;;13.80;99.90;;;;;;4931133;29;20241;-59
2023/10/24 08:31:03;;;;;;;1.17;1.15;;;13.80;99.90;;;;;;4914464;29;20566;-59
2023/10/24 08:33:33;;;;;;;1.40;1.30;;;13.90;99.90;;;;;;4929733;29;20226;-60
2023/10/24 08:36:00;;;;;;;1.30;1.20;;;14.00;99.90;;;;;;4931259;29;20204;-67
2023/10/24 08:38:27;;;;;;;3.33;1.30;;;14.10;99.90;;;;;;4913678;29;20251;-64
2023/10/24 08:40:54;;;;;;;1.45;1.35;;;14.00;99.90;;;;;;4929404;29;20448;-61
2023/10/24 08:43:22;;;;;;;2.33;1.40;;;13.90;99.90;;;;;;4933496;29;20664;-60
2023/10/24 08:45:50;;;;;;;1.20;1.10;;;13.80;99.90;;;;;;4924735;29;20728;-60
2023/10/24 08:48:20;;;;;;;1.33;1.23;;;13.70;99.90;;;;;;4929031;29;20274;-61
2023/10/24 08:50:47;;;;;;;2.03;1.42;;;13.60;99.90;;;;;;4912085;29;20207;-60
2023/10/24 08:53:15;;;;;;;1.60;1.50;;;13.60;99.90;;;;;;4928265;29;20212;-60
2023/10/24 08:55:54;;;;;;;1.70;1.23;;;13.60;99.90;;;;;;4929576;29;20191;-61
2023/10/24 08:58:21;;;;;;;3.03;1.40;;;13.60;99.90;;;;;;4932303;29;20195;-62
2023/10/24 09:00:50;;;;;;;1.40;1.30;;;13.60;99.90;;;;;;4930760;29;20188;-60
2023/10/24 09:03:17;;;;;;;1.63;1.40;;;13.70;99.90;;;;;;4897590;29;20307;-60
2023/10/24 09:05:46;;;;;;;1.50;1.40;;;13.70;99.90;;;;;;4914524;29;20255;-61
2023/10/24 09:08:14;;;;;;;1.70;1.48;;;13.70;99.90;;;;;;4929919;29;20553;-60
2023/10/24 09:10:44;;;;;;;1.40;1.20;;;13.70;99.90;;;;;;4912585;29;20203;-61
2023/10/24 09:13:12;;;;;;;1.43;1.27;;;13.80;99.90;;;;;;4931679;29;20710;-63
2023/10/24 09:15:40;;;;;;;1.55;1.30;;;13.90;99.90;;;;;;4910490;29;20226;-60
2023/10/24 09:18:07;;;;;;;5.75;1.40;;;13.90;99.90;;;;;;4929831;29;20199;-60
2023/10/24 09:20:35;;;;;;;1.67;1.13;;;13.90;99.90;;;;;;4932522;29;20280;-60
2023/10/24 09:23:09;;;;;;;1.25;1.15;;;13.80;99.90;;;;;;4931438;29;20251;-62
2023/10/24 09:25:37;;;;;;;1.20;0.98;;;13.90;99.90;;;;;;4928488;29;20214;-60
2023/10/24 09:28:18;;;;;;;2.88;1.10;;;13.90;99.90;;;;;;4914747;29;20196;-61
2023/10/24 09:30:45;;;;;;;4.65;1.40;;;14.00;99.90;;;;;;4913779;29;20196;-60
2023/10/24 09:33:13;;;;;;;2.53;1.08;;;14.10;99.90;;;;;;4915487;29;20882;-61
2023/10/24 09:35:40;;;;;;;1.73;0.98;;;14.20;99.90;;;;;;4915353;29;20564;-60
2023/10/24 09:38:08;;;;;;;1.05;1.00;;;14.40;99.90;;;;;;4927592;29;20282;-62
2023/10/24 09:40:42;;;;;;;1.90;1.10;;;14.40;99.90;;;;;;4930847;29;20508;-62
2023/10/24 09:43:12;;;;;;;2.50;1.33;;;14.40;99.90;;;;;;4928012;29;20203;-62
2023/10/24 09:45:41;;;;;;;2.28;1.30;;;14.50;99.90;;;;;;4929639;29;20231;-63
2023/10/24 09:48:10;;;;;;;1.40;1.00;;;14.20;99.90;;;;;;4933895;29;20192;-62
2023/10/24 09:50:41;;;;;;;1.20;1.20;;;14.40;99.90;;;;;;4913318;29;20201;-62
2023/10/24 09:53:09;;;;;;;1.23;1.13;;;14.40;99.90;;;;;;4929265;29;20600;-62
2023/10/24 09:55:48;;;;;;;4.22;1.10;;;14.40;99.90;;;;;;4930971;29;20656;-69
2023/10/24 09:58:21;;;;;;;1.30;1.20;;;14.40;99.90;;;;;;4921594;29;20254;-62
2023/10/24 10:00:49;;;;;;;1.00;1.00;;;14.40;99.90;;;;;;4931330;28;20207;-62
2023/10/24 10:03:16;;;;;;;2.35;1.13;;;14.40;99.90;;;;;;4931640;29;20203;-62
2023/10/24 10:05:47;;;;;;;1.00;1.00;;;14.40;99.90;;;;;;4933781;29;20595;-60
2023/10/24 10:08:18;;;;;;;0.90;0.90;;;14.40;99.90;;;;;;4928595;29;20288;-64
2023/10/24 10:10:46;;;;;;;1.17;1.08;;;14.20;99.90;;;;;;4931296;29;20691;-60
2023/10/24 10:13:18;;;;;;;1.15;1.05;;;14.10;99.90;;;;;;4929109;29;20210;-61
2023/10/24 10:15:51;;;;;;;2.05;1.48;;;14.20;99.90;;;;;;4931546;29;20483;-60
2023/10/24 10:19:03;;;;;;;1.58;1.13;;;14.40;99.90;;;;;;4919146;29;20279;-60
2023/10/24 10:21:46;;;;;;;1.17;1.02;;;14.40;99.90;;;;;;4847152;29;20265;-59
2023/10/24 10:24:22;;;;;;;1.58;1.08;;;14.40;99.90;;;;;;4870022;29;20205;-61
2023/10/24 10:26:57;;;;;;;3.15;1.20;;;14.70;99.90;;;;;;4912586;29;20294;-60
2023/10/24 10:29:45;;;;;;;1.15;1.08;;;14.90;99.90;;;;;;4926908;29;20195;-61
2023/10/24 10:32:17;;;;;;;1.33;1.23;;;15.00;99.90;;;;;;4932105;29;20841;-63
2023/10/24 10:35:04;;;;;;;1.33;1.20;;;14.80;99.90;;;;;;4930303;29;20251;-64
2023/10/24 10:37:35;;;;;;;1.35;1.25;;;14.80;99.90;;;;;;4933329;29;20206;-65
2023/10/24 10:40:14;;;;;;;1.42;1.17;;;15.00;99.90;;;;;;4925917;29;20202;-69
2023/10/24 10:42:49;;;;;;;2.60;1.40;;;15.20;99.90;;;;;;4932516;29;20198;-62
2023/10/24 10:45:32;;;;;;;1.10;1.00;;;15.60;99.90;;;;;;4931661;29;20258;-63
2023/10/24 10:48:02;;;;;;;2.97;1.30;;;16.70;99.90;;;;;;4929364;29;20915;-64
2023/10/24 10:50:32;;;;;;;1.20;1.10;;;16.40;99.90;;;;;;4930698;29;20206;-63
2023/10/24 10:53:40;;;;;;;5.93;1.50;;;17.10;99.90;;;;;;4928473;29;20688;-61
2023/10/24 10:56:25;;;;;;;2.22;1.30;;;16.70;99.90;;;;;;4854667;29;20215;-62
2023/10/24 10:59:10;;;;;;;4.82;1.40;;;16.10;99.90;;;;;;4929187;29;20243;-61
2023/10/24 11:01:59;;;;;;;1.77;1.40;;;15.90;99.90;;;;;;4929663;29;20270;-61
2023/10/24 11:04:27;;;;;;;3.45;1.40;;;16.10;99.90;;;;;;4930149;29;20567;-64
2023/10/24 11:06:55;;;;;;;2.00;1.35;;;16.50;99.90;;;;;;4931158;29;20221;-62
2023/10/24 11:09:30;;;;;;;3.50;1.67;;;16.40;99.90;;;;;;4915990;29;20546;-62
2023/10/24 11:12:19;;;;;;;1.92;1.73;;;16.70;99.90;;;;;;4932557;29;20202;-62
2023/10/24 11:15:13;;;;;;;1.50;1.40;;;16.30;99.90;;;;;;4928551;29;20696;-62
2023/10/24 11:17:40;;;;;;;2.05;1.55;;;16.30;99.90;;;;;;4934968;29;20196;-62
2023/10/24 11:20:09;;;;;;;3.63;1.90;;;16.30;99.90;;;;;;4926965;29;20206;-73
2023/10/24 11:22:39;;;;;;;1.70;1.60;;;16.30;99.90;;;;;;4913039;29;20203;-62
2023/10/24 11:25:10;;;;;;;3.75;1.60;;;16.10;99.90;;;;;;4929267;29;20278;-62
2023/10/24 11:27:38;;;;;;;1.73;1.60;;;16.90;99.90;;;;;;4921184;29;20201;-62
2023/10/24 11:30:06;;;;;;;1.80;1.70;;;17.20;99.90;;;;;;4914800;29;20195;-62
2023/10/24 11:32:34;;;;;;;2.15;1.50;;;16.90;99.90;;;;;;4927208;29;20203;-62
2023/10/24 11:35:04;;;;;;;1.80;1.70;;;16.90;99.90;;;;;;4927018;29;20680;-62
2023/10/24 11:37:32;;;;;;;1.80;1.70;;;16.80;99.90;;;;;;4932907;29;20203;-63
2023/10/24 11:39:59;;;;;;;1.60;1.50;;;16.70;99.90;;;;;;4929436;29;20196;-61
2023/10/24 11:42:27;;;;;;;1.52;1.42;;;16.60;99.90;;;;;;4908973;29;20224;-62
2023/10/24 11:44:54;;;;;;;1.75;1.65;;;16.90;99.90;;;;;;4905543;29;20723;-62
2023/10/24 11:47:21;;;;;;;1.70;1.60;;;16.80;99.90;;;;;;4931852;29;20203;-62
2023/10/24 11:49:48;;;;;;;1.80;1.70;;;16.40;99.90;;;;;;4915892;29;20206;-61
2023/10/24 11:52:16;;;;;;;1.70;1.60;;;16.60;99.90;;;;;;4930927;29;20198;-62
2023/10/24 11:54:51;;;;;;;1.88;1.50;;;17.00;99.90;;;;;;4931608;29;20216;-62
2023/10/24 11:57:19;;;;;;;2.30;1.63;;;17.10;99.90;;;;;;4932063;29;20196;-62
2023/10/24 11:59:48;;;;;;;3.05;1.58;;;16.90;99.90;;;;;;4916981;29;20199;-62
2023/10/24 12:02:15;;;;;;;4.60;2.03;;;17.00;99.90;;;;;;4931930;29;20235;-62
2023/10/24 12:04:49;;;;;;;1.80;1.70;;;16.70;99.90;;;;;;4930240;29;20322;-62
2023/10/24 12:07:16;;;;;;;1.60;1.50;;;16.20;99.90;;;;;;4920351;29;20206;-61
2023/10/24 12:09:43;;;;;;;1.60;1.50;;;16.10;99.90;;;;;;4933444;29;20278;-61
2023/10/24 12:12:13;;;;;;;1.90;1.65;;;16.00;99.90;;;;;;4929322;29;20614;-63
2023/10/24 12:14:42;;;;;;;1.70;1.40;;;16.40;99.90;;;;;;4929877;29;20220;-61
2023/10/24 12:17:11;;;;;;;1.60;1.50;;;16.60;99.90;;;;;;4931090;29;20551;-62
2023/10/24 12:19:39;;;;;;;2.38;1.70;;;17.00;99.90;;;;;;4929485;29;20196;-62
2023/10/24 12:22:07;;;;;;;2.72;1.70;;;16.60;99.90;;;;;;4929509;29;20215;-61
2023/10/24 12:24:34;;;;;;;1.50;1.40;;;16.60;99.90;;;;;;4929822;29;20282;-61
2023/10/24 12:27:00;;;;;;;1.60;1.50;;;16.80;99.90;;;;;;4909677;29;20200;-62
2023/10/24 12:29:27;;;;;;;1.52;1.42;;;16.80;99.90;;;;;;4929681;29;20628;-61
2023/10/24 12:31:54;;;;;;;2.65;1.58;;;16.30;99.90;;;;;;4913967;29;20200;-61
2023/10/24 12:34:21;;;;;;;1.92;1.73;;;16.00;99.90;;;;;;4930695;29;20208;-61
2023/10/24 12:36:50;;;;;;;1.55;1.40;;;16.00;99.90;;;;;;4930289;29;20188;-61
2023/10/24 12:39:17;;;;;;;1.80;1.55;;;16.10;99.90;;;;;;4934002;29;20229;-61
2023/10/24 12:41:44;;;;;;;1.60;1.50;;;16.10;99.90;;;;;;4929286;29;20195;-61
2023/10/24 12:44:11;;;;;;;1.70;1.60;;;16.20;99.90;;;;;;4929581;29;20333;-62
2023/10/24 12:46:38;;;;;;;1.73;1.60;;;16.20;99.90;;;;;;4932822;29;20437;-61
2023/10/24 12:49:05;;;;;;;2.20;2.00;;;16.10;99.90;;;;;;4914490;29;20219;-62
2023/10/24 12:51:32;;;;;;;3.38;2.10;;;16.10;99.90;;;;;;4899088;29;20208;-62
2023/10/24 12:53:59;;;;;;;3.63;1.75;;;16.10;99.90;;;;;;4914022;29;20545;-64
2023/10/24 12:56:26;;;;;;;1.85;1.75;;;16.10;99.90;;;;;;4926753;29;20207;-62
2023/10/24 12:58:54;;;;;;;1.88;1.77;;;16.10;99.90;;;;;;4923684;29;20274;-62